sensor_id;sensor_type;location;lat;lon;timestamp;P1;durP1;ratioP1;P2;durP2;ratioP2
69240;SDS011;56352;55.750;13.198;2023-01-28T00:00:47;3.50;;;2.03;;
69240;SDS011;56352;55.750;13.198;2023-01-28T00:03:14;4.80;;;2.78;;
69240;SDS011;56352;55.750;13.198;2023-01-28T00:05:41;3.70;;;2.00;;
69240;SDS011;56352;55.750;13.198;2023-01-28T00:08:08;3.50;;;2.05;;
69240;SDS011;56352;55.750;13.198;2023-01-28T00:10:36;4.63;;;2.72;;
69240;SDS011;56352;55.750;13.198;2023-01-28T00:13:05;5.20;;;2.83;;
69240;SDS011;56352;55.750;13.198;2023-01-28T00:15:32;7.68;;;2.55;;
69240;SDS011;56352;55.750;13.198;2023-01-28T00:17:59;4.10;;;2.45;;
69240;SDS011;56352;55.750;13.198;2023-01-28T00:20:26;3.72;;;2.50;;
69240;SDS011;56352;55.750;13.198;2023-01-28T00:22:53;4.45;;;2.53;;
69240;SDS011;56352;55.750;13.198;2023-01-28T00:25:19;3.53;;;2.28;;
69240;SDS011;56352;55.750;13.198;2023-01-28T00:27:46;4.30;;;2.70;;
69240;SDS011;56352;55.750;13.198;2023-01-28T00:30:14;4.97;;;2.67;;
69240;SDS011;56352;55.750;13.198;2023-01-28T00:32:41;5.35;;;2.65;;
69240;SDS011;56352;55.750;13.198;2023-01-28T00:35:09;6.70;;;3.13;;
69240;SDS011;56352;55.750;13.198;2023-01-28T00:37:36;3.53;;;2.63;;
69240;SDS011;56352;55.750;13.198;2023-01-28T00:40:03;5.20;;;3.22;;
69240;SDS011;56352;55.750;13.198;2023-01-28T00:42:30;4.90;;;2.45;;
69240;SDS011;56352;55.750;13.198;2023-01-28T00:44:57;4.18;;;2.80;;
69240;SDS011;56352;55.750;13.198;2023-01-28T00:47:24;5.65;;;3.03;;
69240;SDS011;56352;55.750;13.198;2023-01-28T00:49:50;5.72;;;2.63;;
69240;SDS011;56352;55.750;13.198;2023-01-28T00:52:17;4.45;;;2.42;;
69240;SDS011;56352;55.750;13.198;2023-01-28T00:54:43;5.90;;;3.08;;
69240;SDS011;56352;55.750;13.198;2023-01-28T00:57:10;5.90;;;3.25;;
69240;SDS011;56352;55.750;13.198;2023-01-28T00:59:37;7.75;;;3.13;;
69240;SDS011;56352;55.750;13.198;2023-01-28T01:02:04;11.85;;;4.40;;
69240;SDS011;56352;55.750;13.198;2023-01-28T01:04:38;5.63;;;2.92;;
69240;SDS011;56352;55.750;13.198;2023-01-28T01:07:06;9.18;;;3.65;;
69240;SDS011;56352;55.750;13.198;2023-01-28T01:09:32;7.80;;;3.90;;
69240;SDS011;56352;55.750;13.198;2023-01-28T01:11:59;5.57;;;3.47;;
69240;SDS011;56352;55.750;13.198;2023-01-28T01:14:26;4.90;;;3.50;;
69240;SDS011;56352;55.750;13.198;2023-01-28T01:16:53;5.93;;;3.65;;
69240;SDS011;56352;55.750;13.198;2023-01-28T01:19:19;5.85;;;3.55;;
69240;SDS011;56352;55.750;13.198;2023-01-28T01:21:46;8.85;;;4.28;;
69240;SDS011;56352;55.750;13.198;2023-01-28T01:24:16;8.98;;;3.55;;
69240;SDS011;56352;55.750;13.198;2023-01-28T01:26:43;6.40;;;3.88;;
69240;SDS011;56352;55.750;13.198;2023-01-28T01:29:09;6.80;;;3.53;;
69240;SDS011;56352;55.750;13.198;2023-01-28T01:31:36;8.70;;;4.82;;
69240;SDS011;56352;55.750;13.198;2023-01-28T01:34:03;7.55;;;4.45;;
69240;SDS011;56352;55.750;13.198;2023-01-28T01:36:30;8.73;;;5.05;;
69240;SDS011;56352;55.750;13.198;2023-01-28T01:38:56;11.32;;;4.43;;
69240;SDS011;56352;55.750;13.198;2023-01-28T01:41:25;10.27;;;4.47;;
69240;SDS011;56352;55.750;13.198;2023-01-28T01:43:55;13.25;;;4.88;;
69240;SDS011;56352;55.750;13.198;2023-01-28T01:46:37;8.32;;;5.07;;
69240;SDS011;56352;55.750;13.198;2023-01-28T01:49:11;6.97;;;4.10;;
69240;SDS011;56352;55.750;13.198;2023-01-28T01:51:41;8.07;;;4.53;;
69240;SDS011;56352;55.750;13.198;2023-01-28T01:54:09;10.77;;;4.82;;
69240;SDS011;56352;55.750;13.198;2023-01-28T01:56:37;9.18;;;4.72;;
69240;SDS011;56352;55.750;13.198;2023-01-28T01:59:07;7.60;;;4.78;;
69240;SDS011;56352;55.750;13.198;2023-01-28T02:01:36;12.73;;;5.85;;
69240;SDS011;56352;55.750;13.198;2023-01-28T02:04:05;8.25;;;4.25;;
69240;SDS011;56352;55.750;13.198;2023-01-28T02:06:34;9.35;;;4.68;;
69240;SDS011;56352;55.750;13.198;2023-01-28T02:09:02;12.82;;;5.43;;
69240;SDS011;56352;55.750;13.198;2023-01-28T02:11:32;10.40;;;5.32;;
69240;SDS011;56352;55.750;13.198;2023-01-28T02:14:00;10.18;;;4.82;;
69240;SDS011;56352;55.750;13.198;2023-01-28T02:16:29;8.60;;;4.77;;
69240;SDS011;56352;55.750;13.198;2023-01-28T02:18:56;9.38;;;4.32;;
69240;SDS011;56352;55.750;13.198;2023-01-28T02:24:18;8.40;;;4.78;;
69240;SDS011;56352;55.750;13.198;2023-01-28T02:30:02;9.65;;;4.85;;
69240;SDS011;56352;55.750;13.198;2023-01-28T02:32:44;10.52;;;4.65;;
69240;SDS011;56352;55.750;13.198;2023-01-28T02:35:15;11.40;;;4.93;;
69240;SDS011;56352;55.750;13.198;2023-01-28T02:38:32;8.20;;;4.68;;
69240;SDS011;56352;55.750;13.198;2023-01-28T02:40:42;8.80;;;4.57;;
69240;SDS011;56352;55.750;13.198;2023-01-28T02:43:37;9.68;;;5.00;;
69240;SDS011;56352;55.750;13.198;2023-01-28T02:49:00;10.05;;;4.93;;
69240;SDS011;56352;55.750;13.198;2023-01-28T02:54:10;13.35;;;6.10;;
69240;SDS011;56352;55.750;13.198;2023-01-28T02:56:50;10.35;;;5.60;;
69240;SDS011;56352;55.750;13.198;2023-01-28T03:02:08;12.00;;;5.90;;
69240;SDS011;56352;55.750;13.198;2023-01-28T03:04:59;9.40;;;5.07;;
69240;SDS011;56352;55.750;13.198;2023-01-28T03:07:30;8.90;;;5.13;;
69240;SDS011;56352;55.750;13.198;2023-01-28T03:10:00;10.63;;;5.47;;
69240;SDS011;56352;55.750;13.198;2023-01-28T03:12:29;13.43;;;6.07;;
69240;SDS011;56352;55.750;13.198;2023-01-28T03:15:16;8.73;;;5.18;;
69240;SDS011;56352;55.750;13.198;2023-01-28T03:18:06;13.32;;;5.07;;
69240;SDS011;56352;55.750;13.198;2023-01-28T03:26:45;13.02;;;5.80;;
69240;SDS011;56352;55.750;13.198;2023-01-28T03:29:54;14.35;;;5.75;;
69240;SDS011;56352;55.750;13.198;2023-01-28T03:32:41;14.30;;;5.90;;
69240;SDS011;56352;55.750;13.198;2023-01-28T03:35:28;10.68;;;5.57;;
69240;SDS011;56352;55.750;13.198;2023-01-28T03:38:15;8.82;;;5.63;;
69240;SDS011;56352;55.750;13.198;2023-01-28T03:40:55;11.88;;;5.97;;
69240;SDS011;56352;55.750;13.198;2023-01-28T03:43:23;11.55;;;6.53;;
69240;SDS011;56352;55.750;13.198;2023-01-28T03:45:49;11.93;;;6.60;;
69240;SDS011;56352;55.750;13.198;2023-01-28T03:48:18;11.38;;;5.90;;
69240;SDS011;56352;55.750;13.198;2023-01-28T03:50:45;12.48;;;6.50;;
69240;SDS011;56352;55.750;13.198;2023-01-28T03:53:16;13.60;;;5.97;;
69240;SDS011;56352;55.750;13.198;2023-01-28T03:55:43;13.02;;;6.05;;
69240;SDS011;56352;55.750;13.198;2023-01-28T03:58:11;14.20;;;6.93;;
69240;SDS011;56352;55.750;13.198;2023-01-28T04:00:40;10.73;;;5.37;;
69240;SDS011;56352;55.750;13.198;2023-01-28T04:03:08;14.68;;;5.78;;
69240;SDS011;56352;55.750;13.198;2023-01-28T04:05:45;10.30;;;5.60;;
69240;SDS011;56352;55.750;13.198;2023-01-28T04:08:12;13.27;;;6.05;;
69240;SDS011;56352;55.750;13.198;2023-01-28T04:10:39;10.30;;;5.93;;
69240;SDS011;56352;55.750;13.198;2023-01-28T04:13:06;13.25;;;6.15;;
69240;SDS011;56352;55.750;13.198;2023-01-28T04:15:32;12.18;;;5.82;;
69240;SDS011;56352;55.750;13.198;2023-01-28T04:18:01;10.75;;;5.82;;
69240;SDS011;56352;55.750;13.198;2023-01-28T04:20:28;11.15;;;5.70;;
69240;SDS011;56352;55.750;13.198;2023-01-28T04:22:54;10.30;;;4.95;;
69240;SDS011;56352;55.750;13.198;2023-01-28T04:25:21;14.85;;;6.22;;
69240;SDS011;56352;55.750;13.198;2023-01-28T04:27:48;11.90;;;5.35;;
69240;SDS011;56352;55.750;13.198;2023-01-28T04:30:15;10.82;;;5.28;;
69240;SDS011;56352;55.750;13.198;2023-01-28T04:32:42;8.15;;;4.88;;
69240;SDS011;56352;55.750;13.198;2023-01-28T04:35:11;10.30;;;4.45;;
69240;SDS011;56352;55.750;13.198;2023-01-28T04:37:42;9.93;;;4.97;;
69240;SDS011;56352;55.750;13.198;2023-01-28T04:40:09;10.55;;;4.28;;
69240;SDS011;56352;55.750;13.198;2023-01-28T04:42:37;8.93;;;4.10;;
69240;SDS011;56352;55.750;13.198;2023-01-28T04:45:04;7.55;;;4.13;;
69240;SDS011;56352;55.750;13.198;2023-01-28T04:47:31;13.27;;;4.40;;
69240;SDS011;56352;55.750;13.198;2023-01-28T04:49:58;10.40;;;4.30;;
69240;SDS011;56352;55.750;13.198;2023-01-28T04:52:24;11.15;;;4.25;;
69240;SDS011;56352;55.750;13.198;2023-01-28T04:54:51;8.65;;;4.10;;
69240;SDS011;56352;55.750;13.198;2023-01-28T04:57:18;7.63;;;3.72;;
69240;SDS011;56352;55.750;13.198;2023-01-28T04:59:45;8.10;;;3.55;;
69240;SDS011;56352;55.750;13.198;2023-01-28T05:02:11;9.35;;;3.88;;
69240;SDS011;56352;55.750;13.198;2023-01-28T05:04:38;8.50;;;3.42;;
69240;SDS011;56352;55.750;13.198;2023-01-28T05:07:05;6.75;;;3.35;;
69240;SDS011;56352;55.750;13.198;2023-01-28T05:09:32;7.07;;;3.35;;
69240;SDS011;56352;55.750;13.198;2023-01-28T05:11:58;8.80;;;3.38;;
69240;SDS011;56352;55.750;13.198;2023-01-28T05:14:25;7.85;;;3.60;;
69240;SDS011;56352;55.750;13.198;2023-01-28T05:16:52;6.88;;;3.80;;
69240;SDS011;56352;55.750;13.198;2023-01-28T05:19:19;10.57;;;3.80;;
69240;SDS011;56352;55.750;13.198;2023-01-28T05:21:45;10.80;;;3.80;;
69240;SDS011;56352;55.750;13.198;2023-01-28T05:24:12;6.53;;;3.22;;
69240;SDS011;56352;55.750;13.198;2023-01-28T05:26:39;7.18;;;3.47;;
69240;SDS011;56352;55.750;13.198;2023-01-28T05:29:06;6.63;;;3.22;;
69240;SDS011;56352;55.750;13.198;2023-01-28T05:31:33;7.47;;;3.25;;
69240;SDS011;56352;55.750;13.198;2023-01-28T05:33:59;8.88;;;3.58;;
69240;SDS011;56352;55.750;13.198;2023-01-28T05:36:26;5.30;;;2.83;;
69240;SDS011;56352;55.750;13.198;2023-01-28T05:38:53;10.13;;;3.53;;
69240;SDS011;56352;55.750;13.198;2023-01-28T05:41:19;10.00;;;4.15;;
69240;SDS011;56352;55.750;13.198;2023-01-28T05:43:46;5.85;;;3.03;;
69240;SDS011;56352;55.750;13.198;2023-01-28T05:46:13;6.68;;;3.13;;
69240;SDS011;56352;55.750;13.198;2023-01-28T05:48:40;8.30;;;3.65;;
69240;SDS011;56352;55.750;13.198;2023-01-28T05:51:06;6.85;;;3.40;;
69240;SDS011;56352;55.750;13.198;2023-01-28T05:53:33;8.32;;;3.80;;
69240;SDS011;56352;55.750;13.198;2023-01-28T05:56:00;8.75;;;4.07;;
69240;SDS011;56352;55.750;13.198;2023-01-28T05:58:27;7.35;;;3.47;;
69240;SDS011;56352;55.750;13.198;2023-01-28T06:00:57;9.60;;;4.88;;
69240;SDS011;56352;55.750;13.198;2023-01-28T06:03:24;10.00;;;4.43;;
69240;SDS011;56352;55.750;13.198;2023-01-28T06:05:50;10.35;;;3.80;;
69240;SDS011;56352;55.750;13.198;2023-01-28T06:08:17;9.48;;;5.15;;
69240;SDS011;56352;55.750;13.198;2023-01-28T06:10:44;8.63;;;4.25;;
69240;SDS011;56352;55.750;13.198;2023-01-28T06:13:11;11.55;;;4.65;;
69240;SDS011;56352;55.750;13.198;2023-01-28T06:15:38;9.65;;;4.90;;
69240;SDS011;56352;55.750;13.198;2023-01-28T06:18:05;11.48;;;4.88;;
69240;SDS011;56352;55.750;13.198;2023-01-28T06:20:31;12.07;;;5.47;;
69240;SDS011;56352;55.750;13.198;2023-01-28T06:22:58;9.57;;;5.10;;
69240;SDS011;56352;55.750;13.198;2023-01-28T06:25:25;11.70;;;4.93;;
69240;SDS011;56352;55.750;13.198;2023-01-28T06:27:52;13.23;;;5.28;;
69240;SDS011;56352;55.750;13.198;2023-01-28T06:30:20;10.57;;;5.25;;
69240;SDS011;56352;55.750;13.198;2023-01-28T06:32:56;13.02;;;5.60;;
69240;SDS011;56352;55.750;13.198;2023-01-28T06:35:23;14.13;;;5.35;;
69240;SDS011;56352;55.750;13.198;2023-01-28T06:37:51;12.20;;;5.85;;
69240;SDS011;56352;55.750;13.198;2023-01-28T06:40:18;16.52;;;5.93;;
69240;SDS011;56352;55.750;13.198;2023-01-28T06:42:45;11.05;;;5.53;;
69240;SDS011;56352;55.750;13.198;2023-01-28T06:45:12;14.02;;;6.93;;
69240;SDS011;56352;55.750;13.198;2023-01-28T06:47:39;16.00;;;7.03;;
69240;SDS011;56352;55.750;13.198;2023-01-28T06:50:06;17.48;;;6.55;;
69240;SDS011;56352;55.750;13.198;2023-01-28T06:52:32;18.35;;;7.95;;
69240;SDS011;56352;55.750;13.198;2023-01-28T06:54:59;12.90;;;6.20;;
69240;SDS011;56352;55.750;13.198;2023-01-28T06:57:28;14.13;;;7.07;;
69240;SDS011;56352;55.750;13.198;2023-01-28T06:59:55;12.23;;;6.32;;
69240;SDS011;56352;55.750;13.198;2023-01-28T07:02:21;14.23;;;6.40;;
69240;SDS011;56352;55.750;13.198;2023-01-28T07:04:50;12.07;;;6.30;;
69240;SDS011;56352;55.750;13.198;2023-01-28T07:07:16;12.30;;;6.60;;
69240;SDS011;56352;55.750;13.198;2023-01-28T07:09:43;12.77;;;6.63;;
69240;SDS011;56352;55.750;13.198;2023-01-28T07:12:09;10.18;;;6.10;;
69240;SDS011;56352;55.750;13.198;2023-01-28T07:14:36;13.32;;;6.38;;
69240;SDS011;56352;55.750;13.198;2023-01-28T07:17:03;11.10;;;6.15;;
69240;SDS011;56352;55.750;13.198;2023-01-28T07:19:30;12.80;;;6.57;;
69240;SDS011;56352;55.750;13.198;2023-01-28T07:21:56;12.88;;;6.32;;
69240;SDS011;56352;55.750;13.198;2023-01-28T07:24:26;13.55;;;5.70;;
69240;SDS011;56352;55.750;13.198;2023-01-28T07:26:53;16.10;;;6.70;;
69240;SDS011;56352;55.750;13.198;2023-01-28T07:29:19;17.27;;;6.13;;
69240;SDS011;56352;55.750;13.198;2023-01-28T07:31:46;10.85;;;6.07;;
69240;SDS011;56352;55.750;13.198;2023-01-28T07:34:13;11.82;;;5.50;;
69240;SDS011;56352;55.750;13.198;2023-01-28T07:36:40;16.80;;;7.38;;
69240;SDS011;56352;55.750;13.198;2023-01-28T07:39:07;16.10;;;6.20;;
69240;SDS011;56352;55.750;13.198;2023-01-28T07:41:34;13.32;;;6.20;;
69240;SDS011;56352;55.750;13.198;2023-01-28T07:44:00;14.88;;;7.00;;
69240;SDS011;56352;55.750;13.198;2023-01-28T07:46:27;15.30;;;6.97;;
69240;SDS011;56352;55.750;13.198;2023-01-28T07:48:54;12.02;;;5.97;;
69240;SDS011;56352;55.750;13.198;2023-01-28T07:51:20;14.60;;;7.00;;
69240;SDS011;56352;55.750;13.198;2023-01-28T07:53:47;16.17;;;7.30;;
69240;SDS011;56352;55.750;13.198;2023-01-28T07:56:14;13.63;;;6.35;;
69240;SDS011;56352;55.750;13.198;2023-01-28T07:58:40;15.55;;;6.93;;
69240;SDS011;56352;55.750;13.198;2023-01-28T08:01:07;16.60;;;6.90;;
69240;SDS011;56352;55.750;13.198;2023-01-28T08:03:34;20.42;;;7.68;;
69240;SDS011;56352;55.750;13.198;2023-01-28T08:06:01;18.25;;;7.35;;
69240;SDS011;56352;55.750;13.198;2023-01-28T08:08:27;14.00;;;7.03;;
69240;SDS011;56352;55.750;13.198;2023-01-28T08:11:04;12.35;;;6.40;;
69240;SDS011;56352;55.750;13.198;2023-01-28T08:13:50;16.00;;;6.85;;
69240;SDS011;56352;55.750;13.198;2023-01-28T08:16:17;12.93;;;6.18;;
69240;SDS011;56352;55.750;13.198;2023-01-28T08:18:44;14.95;;;6.68;;
69240;SDS011;56352;55.750;13.198;2023-01-28T08:21:10;14.68;;;6.90;;
69240;SDS011;56352;55.750;13.198;2023-01-28T08:23:37;12.95;;;6.07;;
69240;SDS011;56352;55.750;13.198;2023-01-28T08:26:04;9.57;;;5.97;;
69240;SDS011;56352;55.750;13.198;2023-01-28T08:28:31;13.38;;;6.15;;
69240;SDS011;56352;55.750;13.198;2023-01-28T08:31:01;10.88;;;5.10;;
69240;SDS011;56352;55.750;13.198;2023-01-28T08:33:28;11.38;;;5.75;;
69240;SDS011;56352;55.750;13.198;2023-01-28T08:35:55;15.85;;;6.18;;
69240;SDS011;56352;55.750;13.198;2023-01-28T08:38:21;12.85;;;5.72;;
69240;SDS011;56352;55.750;13.198;2023-01-28T08:40:48;15.95;;;6.65;;
69240;SDS011;56352;55.750;13.198;2023-01-28T08:43:21;12.88;;;6.50;;
69240;SDS011;56352;55.750;13.198;2023-01-28T08:45:47;11.60;;;5.88;;
69240;SDS011;56352;55.750;13.198;2023-01-28T08:48:15;13.50;;;5.75;;
69240;SDS011;56352;55.750;13.198;2023-01-28T08:50:42;15.23;;;6.70;;
69240;SDS011;56352;55.750;13.198;2023-01-28T08:53:18;12.88;;;5.88;;
69240;SDS011;56352;55.750;13.198;2023-01-28T08:55:45;12.20;;;6.20;;
69240;SDS011;56352;55.750;13.198;2023-01-28T08:58:13;11.20;;;5.53;;
69240;SDS011;56352;55.750;13.198;2023-01-28T09:00:42;10.70;;;5.40;;
69240;SDS011;56352;55.750;13.198;2023-01-28T09:03:09;9.88;;;5.65;;
69240;SDS011;56352;55.750;13.198;2023-01-28T09:05:37;9.60;;;5.13;;
69240;SDS011;56352;55.750;13.198;2023-01-28T09:08:09;10.32;;;5.07;;
69240;SDS011;56352;55.750;13.198;2023-01-28T09:10:37;10.35;;;5.47;;
69240;SDS011;56352;55.750;13.198;2023-01-28T09:13:05;11.80;;;5.10;;
69240;SDS011;56352;55.750;13.198;2023-01-28T09:15:33;11.57;;;4.63;;
69240;SDS011;56352;55.750;13.198;2023-01-28T09:18:00;10.40;;;5.45;;
69240;SDS011;56352;55.750;13.198;2023-01-28T09:20:26;15.93;;;5.72;;
69240;SDS011;56352;55.750;13.198;2023-01-28T09:22:53;12.30;;;5.78;;
69240;SDS011;56352;55.750;13.198;2023-01-28T09:25:20;12.02;;;5.82;;
69240;SDS011;56352;55.750;13.198;2023-01-28T09:27:49;12.32;;;5.75;;
69240;SDS011;56352;55.750;13.198;2023-01-28T09:30:15;13.50;;;5.55;;
69240;SDS011;56352;55.750;13.198;2023-01-28T09:32:43;10.73;;;5.20;;
69240;SDS011;56352;55.750;13.198;2023-01-28T09:35:09;11.18;;;5.25;;
69240;SDS011;56352;55.750;13.198;2023-01-28T09:37:37;12.27;;;5.35;;
69240;SDS011;56352;55.750;13.198;2023-01-28T09:47:52;9.25;;;5.68;;
69240;SDS011;56352;55.750;13.198;2023-01-28T09:50:41;10.73;;;5.50;;
69240;SDS011;56352;55.750;13.198;2023-01-28T09:53:20;11.98;;;5.45;;
69240;SDS011;56352;55.750;13.198;2023-01-28T09:55:49;9.63;;;6.13;;
69240;SDS011;56352;55.750;13.198;2023-01-28T09:58:21;10.27;;;5.97;;
69240;SDS011;56352;55.750;13.198;2023-01-28T10:01:49;11.68;;;5.70;;
69240;SDS011;56352;55.750;13.198;2023-01-28T10:06:53;12.13;;;6.40;;
69240;SDS011;56352;55.750;13.198;2023-01-28T10:15:06;9.20;;;4.60;;
69240;SDS011;56352;55.750;13.198;2023-01-28T10:17:51;9.48;;;4.90;;
69240;SDS011;56352;55.750;13.198;2023-01-28T10:20:51;8.90;;;4.78;;
69240;SDS011;56352;55.750;13.198;2023-01-28T10:23:42;9.65;;;5.07;;
69240;SDS011;56352;55.750;13.198;2023-01-28T10:26:21;11.25;;;5.20;;
69240;SDS011;56352;55.750;13.198;2023-01-28T10:29:02;10.13;;;5.30;;
69240;SDS011;56352;55.750;13.198;2023-01-28T10:31:35;8.48;;;4.30;;
69240;SDS011;56352;55.750;13.198;2023-01-28T10:34:08;9.65;;;4.95;;
69240;SDS011;56352;55.750;13.198;2023-01-28T10:36:35;7.65;;;4.97;;
69240;SDS011;56352;55.750;13.198;2023-01-28T10:39:02;10.05;;;4.90;;
69240;SDS011;56352;55.750;13.198;2023-01-28T10:41:28;9.90;;;4.95;;
69240;SDS011;56352;55.750;13.198;2023-01-28T10:43:55;12.38;;;4.97;;
69240;SDS011;56352;55.750;13.198;2023-01-28T10:46:23;8.75;;;4.75;;
69240;SDS011;56352;55.750;13.198;2023-01-28T10:49:14;9.18;;;4.60;;
69240;SDS011;56352;55.750;13.198;2023-01-28T10:51:43;8.88;;;5.10;;
69240;SDS011;56352;55.750;13.198;2023-01-28T10:54:17;8.65;;;4.70;;
69240;SDS011;56352;55.750;13.198;2023-01-28T10:56:44;10.73;;;5.25;;
69240;SDS011;56352;55.750;13.198;2023-01-28T11:05:03;10.02;;;4.72;;
69240;SDS011;56352;55.750;13.198;2023-01-28T11:07:37;8.02;;;4.75;;
69240;SDS011;56352;55.750;13.198;2023-01-28T11:10:20;8.70;;;4.65;;
69240;SDS011;56352;55.750;13.198;2023-01-28T11:12:56;11.95;;;5.53;;
69240;SDS011;56352;55.750;13.198;2023-01-28T11:15:23;10.10;;;5.65;;
69240;SDS011;56352;55.750;13.198;2023-01-28T11:18:00;9.35;;;5.32;;
69240;SDS011;56352;55.750;13.198;2023-01-28T11:20:30;9.57;;;5.07;;
69240;SDS011;56352;55.750;13.198;2023-01-28T11:23:16;13.07;;;5.40;;
69240;SDS011;56352;55.750;13.198;2023-01-28T11:28:52;9.40;;;4.95;;
69240;SDS011;56352;55.750;13.198;2023-01-28T11:31:25;9.85;;;4.82;;
69240;SDS011;56352;55.750;13.198;2023-01-28T11:39:22;8.48;;;4.93;;
69240;SDS011;56352;55.750;13.198;2023-01-28T11:41:53;9.77;;;4.80;;
69240;SDS011;56352;55.750;13.198;2023-01-28T11:44:28;10.90;;;6.03;;
69240;SDS011;56352;55.750;13.198;2023-01-28T11:52:22;8.23;;;5.30;;
69240;SDS011;56352;55.750;13.198;2023-01-28T11:58:08;6.82;;;4.65;;
69240;SDS011;56352;55.750;13.198;2023-01-28T12:00:45;9.75;;;4.93;;
69240;SDS011;56352;55.750;13.198;2023-01-28T12:06:23;8.80;;;4.85;;
69240;SDS011;56352;55.750;13.198;2023-01-28T12:11:55;6.88;;;4.30;;
69240;SDS011;56352;55.750;13.198;2023-01-28T12:24:27;19.23;;;5.00;;
69240;SDS011;56352;55.750;13.198;2023-01-28T12:30:14;8.10;;;4.47;;
69240;SDS011;56352;55.750;13.198;2023-01-28T12:39:36;9.32;;;4.68;;
69240;SDS011;56352;55.750;13.198;2023-01-28T12:45:20;10.88;;;4.82;;
69240;SDS011;56352;55.750;13.198;2023-01-28T12:47:57;9.43;;;4.20;;
69240;SDS011;56352;55.750;13.198;2023-01-28T12:50:30;9.30;;;4.45;;
69240;SDS011;56352;55.750;13.198;2023-01-28T12:53:00;8.25;;;4.75;;
69240;SDS011;56352;55.750;13.198;2023-01-28T12:55:45;6.28;;;4.05;;
69240;SDS011;56352;55.750;13.198;2023-01-28T12:58:16;11.52;;;6.07;;
69240;SDS011;56352;55.750;13.198;2023-01-28T13:00:47;6.65;;;4.03;;
69240;SDS011;56352;55.750;13.198;2023-01-28T13:03:30;8.75;;;4.88;;
69240;SDS011;56352;55.750;13.198;2023-01-28T13:06:01;8.07;;;4.72;;
69240;SDS011;56352;55.750;13.198;2023-01-28T13:08:31;7.90;;;4.50;;
69240;SDS011;56352;55.750;13.198;2023-01-28T13:10:59;10.63;;;5.20;;
69240;SDS011;56352;55.750;13.198;2023-01-28T13:13:37;8.27;;;4.43;;
69240;SDS011;56352;55.750;13.198;2023-01-28T13:16:06;7.95;;;5.05;;
69240;SDS011;56352;55.750;13.198;2023-01-28T13:18:45;13.15;;;4.55;;
69240;SDS011;56352;55.750;13.198;2023-01-28T13:31:42;8.98;;;4.05;;
69240;SDS011;56352;55.750;13.198;2023-01-28T13:34:31;6.63;;;4.20;;
69240;SDS011;56352;55.750;13.198;2023-01-28T13:37:05;11.45;;;4.88;;
69240;SDS011;56352;55.750;13.198;2023-01-28T13:42:42;6.60;;;4.22;;
69240;SDS011;56352;55.750;13.198;2023-01-28T13:45:20;7.88;;;4.25;;
69240;SDS011;56352;55.750;13.198;2023-01-28T13:47:51;7.85;;;4.18;;
69240;SDS011;56352;55.750;13.198;2023-01-28T13:50:30;9.75;;;4.50;;
69240;SDS011;56352;55.750;13.198;2023-01-28T13:56:27;8.73;;;4.53;;
69240;SDS011;56352;55.750;13.198;2023-01-28T14:07:54;8.93;;;4.70;;
69240;SDS011;56352;55.750;13.198;2023-01-28T14:10:59;9.70;;;4.82;;
69240;SDS011;56352;55.750;13.198;2023-01-28T14:16:37;8.65;;;5.15;;
69240;SDS011;56352;55.750;13.198;2023-01-28T14:19:09;10.77;;;4.50;;
69240;SDS011;56352;55.750;13.198;2023-01-28T14:21:38;8.20;;;4.80;;
69240;SDS011;56352;55.750;13.198;2023-01-28T14:24:09;11.05;;;5.07;;
69240;SDS011;56352;55.750;13.198;2023-01-28T14:26:51;9.23;;;4.22;;
69240;SDS011;56352;55.750;13.198;2023-01-28T14:29:42;8.90;;;4.63;;
69240;SDS011;56352;55.750;13.198;2023-01-28T14:32:24;8.20;;;4.40;;
69240;SDS011;56352;55.750;13.198;2023-01-28T14:34:54;7.13;;;4.35;;
69240;SDS011;56352;55.750;13.198;2023-01-28T14:37:29;7.53;;;4.68;;
69240;SDS011;56352;55.750;13.198;2023-01-28T14:39:58;10.05;;;5.40;;
69240;SDS011;56352;55.750;13.198;2023-01-28T14:42:34;8.90;;;4.97;;
69240;SDS011;56352;55.750;13.198;2023-01-28T14:48:07;14.90;;;5.75;;
69240;SDS011;56352;55.750;13.198;2023-01-28T14:59:25;12.77;;;4.78;;
69240;SDS011;56352;55.750;13.198;2023-01-28T15:01:57;12.65;;;5.93;;
69240;SDS011;56352;55.750;13.198;2023-01-28T15:04:31;10.05;;;4.85;;
69240;SDS011;56352;55.750;13.198;2023-01-28T15:07:16;11.80;;;4.93;;
69240;SDS011;56352;55.750;13.198;2023-01-28T15:12:32;9.18;;;4.63;;
69240;SDS011;56352;55.750;13.198;2023-01-28T15:15:07;9.07;;;5.40;;
69240;SDS011;56352;55.750;13.198;2023-01-28T15:17:42;8.45;;;4.88;;
69240;SDS011;56352;55.750;13.198;2023-01-28T15:20:14;11.18;;;5.55;;
69240;SDS011;56352;55.750;13.198;2023-01-28T15:22:44;10.27;;;6.03;;
69240;SDS011;56352;55.750;13.198;2023-01-28T15:25:16;13.10;;;5.57;;
69240;SDS011;56352;55.750;13.198;2023-01-28T15:27:48;13.63;;;4.45;;
69240;SDS011;56352;55.750;13.198;2023-01-28T15:30:22;8.90;;;5.00;;
69240;SDS011;56352;55.750;13.198;2023-01-28T15:33:04;11.70;;;5.00;;
69240;SDS011;56352;55.750;13.198;2023-01-28T15:35:44;9.35;;;5.03;;
69240;SDS011;56352;55.750;13.198;2023-01-28T15:38:22;11.55;;;5.63;;
69240;SDS011;56352;55.750;13.198;2023-01-28T15:41:04;18.13;;;5.78;;
69240;SDS011;56352;55.750;13.198;2023-01-28T15:43:39;11.82;;;6.00;;
69240;SDS011;56352;55.750;13.198;2023-01-28T15:46:11;11.77;;;5.55;;
69240;SDS011;56352;55.750;13.198;2023-01-28T15:48:44;8.88;;;5.10;;
69240;SDS011;56352;55.750;13.198;2023-01-28T15:51:19;11.80;;;5.45;;
69240;SDS011;56352;55.750;13.198;2023-01-28T15:54:13;11.15;;;5.57;;
69240;SDS011;56352;55.750;13.198;2023-01-28T15:56:42;15.30;;;6.25;;
69240;SDS011;56352;55.750;13.198;2023-01-28T15:59:31;12.45;;;5.72;;
69240;SDS011;56352;55.750;13.198;2023-01-28T16:02:21;13.25;;;5.50;;
69240;SDS011;56352;55.750;13.198;2023-01-28T16:05:54;9.43;;;5.15;;
69240;SDS011;56352;55.750;13.198;2023-01-28T16:08:18;14.25;;;6.05;;
69240;SDS011;56352;55.750;13.198;2023-01-28T16:14:39;10.00;;;5.82;;
69240;SDS011;56352;55.750;13.198;2023-01-28T16:17:15;13.88;;;6.03;;
69240;SDS011;56352;55.750;13.198;2023-01-28T16:20:27;13.57;;;6.10;;
69240;SDS011;56352;55.750;13.198;2023-01-28T16:23:30;12.30;;;6.57;;
69240;SDS011;56352;55.750;13.198;2023-01-28T16:30:58;13.20;;;5.68;;
69240;SDS011;56352;55.750;13.198;2023-01-28T16:37:51;13.82;;;6.53;;
69240;SDS011;56352;55.750;13.198;2023-01-28T16:40:33;13.20;;;7.13;;
69240;SDS011;56352;55.750;13.198;2023-01-28T16:43:08;17.98;;;7.75;;
69240;SDS011;56352;55.750;13.198;2023-01-28T16:46:03;11.18;;;6.80;;
69240;SDS011;56352;55.750;13.198;2023-01-28T16:48:49;15.73;;;7.03;;
69240;SDS011;56352;55.750;13.198;2023-01-28T16:51:50;16.40;;;7.75;;
69240;SDS011;56352;55.750;13.198;2023-01-28T17:06:54;13.95;;;7.20;;
69240;SDS011;56352;55.750;13.198;2023-01-28T17:09:37;16.85;;;7.57;;
69240;SDS011;56352;55.750;13.198;2023-01-28T17:12:40;14.88;;;6.63;;
69240;SDS011;56352;55.750;13.198;2023-01-28T17:16:02;13.90;;;7.00;;
69240;SDS011;56352;55.750;13.198;2023-01-28T17:18:32;13.40;;;6.80;;
69240;SDS011;56352;55.750;13.198;2023-01-28T17:21:29;17.75;;;6.88;;
69240;SDS011;56352;55.750;13.198;2023-01-28T17:24:14;13.70;;;7.18;;
69240;SDS011;56352;55.750;13.198;2023-01-28T17:27:10;14.88;;;7.28;;
69240;SDS011;56352;55.750;13.198;2023-01-28T17:29:46;14.80;;;7.30;;
69240;SDS011;56352;55.750;13.198;2023-01-28T17:32:55;16.67;;;6.60;;
69240;SDS011;56352;55.750;13.198;2023-01-28T17:35:51;10.80;;;6.03;;